Time;durP1;ratioP1;P1;durP2;ratioP2;P2;SDS_P1;SDS_P2;PMS_P1;PMS_P2;Temp;Humidity;BMP_temperature;BMP_pressure;BME280_temperature;BME280_humidity;BME280_pressure;Samples;Min_cycle;Max_cycle;Signal;HPM_P1;HPM_P2
2023/05/31 00:00:23;;;;;;;8.45;3.05;;;12.20;99.90;;;;;;5054588;28;20056;-84
2023/05/31 00:03:09;;;;;;;12.43;4.32;;;12.20;99.90;;;;;;5054310;28;20049;-83
2023/05/31 00:05:56;;;;;;;9.45;2.97;;;12.10;99.90;;;;;;5054810;28;20048;-83
2023/05/31 00:08:42;;;;;;;10.73;3.88;;;12.10;99.90;;;;;;5054519;28;20124;-83
2023/05/31 00:11:28;;;;;;;10.63;3.20;;;12.00;99.90;;;;;;5035968;28;20049;-82
2023/05/31 00:14:15;;;;;;;11.40;3.42;;;11.90;99.90;;;;;;5035911;28;20052;-84
2023/05/31 00:17:01;;;;;;;13.85;2.95;;;11.90;99.90;;;;;;5052174;28;20049;-83
2023/05/31 00:19:47;;;;;;;11.38;3.25;;;11.80;99.90;;;;;;5053876;28;20045;-82
2023/05/31 00:22:33;;;;;;;7.18;2.85;;;11.70;99.90;;;;;;5055519;28;20053;-83
2023/05/31 00:25:20;;;;;;;10.85;3.30;;;11.70;99.90;;;;;;5058329;28;20480;-84
2023/05/31 00:28:06;;;;;;;14.27;3.15;;;11.60;99.90;;;;;;5034767;28;20057;-81
2023/05/31 00:30:53;;;;;;;10.63;4.00;;;11.60;99.90;;;;;;5052726;28;20052;-84
2023/05/31 00:33:39;;;;;;;12.27;3.40;;;11.50;99.90;;;;;;5052825;28;20052;-82
2023/05/31 00:36:25;;;;;;;9.25;3.22;;;11.40;99.90;;;;;;5053146;28;20053;-85
2023/05/31 00:39:11;;;;;;;8.40;3.33;;;11.30;99.90;;;;;;5038485;28;20128;-83
2023/05/31 00:41:57;;;;;;;8.13;3.55;;;11.20;99.90;;;;;;5052597;28;20045;-84
2023/05/31 00:44:43;;;;;;;9.40;2.78;;;11.20;99.90;;;;;;5051329;28;20049;-84
2023/05/31 00:47:30;;;;;;;13.70;3.33;;;11.10;99.90;;;;;;5034513;28;20063;-82
2023/05/31 00:50:16;;;;;;;8.55;3.30;;;11.10;99.90;;;;;;5051742;28;20504;-83
2023/05/31 00:53:04;;;;;;;9.07;3.60;;;11.00;99.90;;;;;;5052796;28;20045;-83
2023/05/31 00:55:52;;;;;;;11.10;3.75;;;11.00;99.90;;;;;;5034366;28;20147;-83
2023/05/31 00:58:40;;;;;;;9.13;3.20;;;11.00;99.90;;;;;;5051154;28;20400;-83
2023/05/31 01:01:27;;;;;;;10.63;3.97;;;11.00;99.90;;;;;;5051447;28;20049;-83
2023/05/31 01:04:13;;;;;;;7.13;3.28;;;11.00;99.90;;;;;;5052184;28;20089;-82
2023/05/31 01:07:03;;;;;;;6.80;3.05;;;10.90;99.90;;;;;;5051105;28;20079;-83
2023/05/31 01:09:49;;;;;;;8.75;3.60;;;11.00;99.90;;;;;;5051867;28;20484;-83
2023/05/31 01:12:35;;;;;;;9.13;3.88;;;10.90;99.90;;;;;;5050707;28;20122;-82
2023/05/31 01:15:35;;;;;;;11.68;3.60;;;10.80;99.90;;;;;;5052245;28;20063;-81
2023/05/31 01:18:35;;;;;;;11.60;3.88;;;10.80;99.90;;;;;;5053608;28;20060;-80
2023/05/31 01:21:37;;;;;;;9.35;4.05;;;10.70;99.90;;;;;;5034404;28;20041;-82
2023/05/31 01:24:37;;;;;;;7.82;3.10;;;10.70;99.90;;;;;;5033367;28;20061;-82
2023/05/31 01:27:25;;;;;;;13.93;3.83;;;10.70;99.90;;;;;;5037102;28;20055;-80
2023/05/31 01:30:13;;;;;;;10.40;3.60;;;10.60;99.90;;;;;;5050910;28;20103;-81
2023/05/31 01:33:00;;;;;;;11.13;4.03;;;10.60;99.90;;;;;;5051048;28;20041;-83
2023/05/31 01:35:46;;;;;;;12.70;4.45;;;10.60;99.90;;;;;;5052237;28;20053;-84
2023/05/31 01:38:32;;;;;;;12.75;4.50;;;10.60;99.90;;;;;;5052328;28;20435;-81
2023/05/31 01:41:20;;;;;;;12.10;4.38;;;10.60;99.90;;;;;;5051975;28;20579;-81
2023/05/31 01:44:07;;;;;;;10.30;4.00;;;10.60;99.90;;;;;;5050671;28;20053;-83
2023/05/31 01:46:54;;;;;;;13.68;4.03;;;10.60;99.90;;;;;;5050676;28;20057;-84
2023/05/31 01:49:41;;;;;;;12.32;4.40;;;10.60;99.90;;;;;;5052248;28;20054;-84
2023/05/31 01:52:29;;;;;;;18.10;5.55;;;10.60;99.90;;;;;;5052343;28;20053;-81
2023/05/31 01:55:16;;;;;;;10.90;4.28;;;10.60;99.90;;;;;;5052513;28;20059;-84
2023/05/31 01:58:04;;;;;;;12.15;4.47;;;10.60;99.90;;;;;;5050510;28;20068;-85
2023/05/31 02:00:51;;;;;;;13.85;4.65;;;10.60;99.90;;;;;;5050846;28;20060;-84
2023/05/31 02:03:38;;;;;;;8.60;3.97;;;10.60;99.90;;;;;;5056078;28;20045;-83
2023/05/31 02:06:26;;;;;;;9.80;4.03;;;10.60;99.90;;;;;;5050400;28;20055;-85
2023/05/31 02:09:13;;;;;;;8.02;3.70;;;10.50;99.90;;;;;;5049716;28;20060;-84
2023/05/31 02:11:59;;;;;;;11.73;4.40;;;10.50;99.90;;;;;;5051743;28;20056;-85
2023/05/31 02:14:45;;;;;;;12.65;4.43;;;10.50;99.90;;;;;;5033798;28;20064;-82
2023/05/31 02:17:32;;;;;;;15.15;4.75;;;10.50;99.90;;;;;;5052034;28;20053;-84
2023/05/31 02:20:19;;;;;;;12.20;4.55;;;10.40;99.90;;;;;;5049947;28;20045;-84
2023/05/31 02:23:06;;;;;;;15.40;5.40;;;10.40;99.90;;;;;;5050432;28;20096;-84
2023/05/31 02:25:52;;;;;;;15.52;5.47;;;10.50;99.90;;;;;;5033247;28;20122;-81
2023/05/31 02:28:38;;;;;;;17.25;4.72;;;10.50;99.90;;;;;;5054429;28;20148;-85
2023/05/31 02:31:24;;;;;;;12.45;4.53;;;10.50;99.90;;;;;;5049781;28;20045;-85
2023/05/31 02:34:11;;;;;;;10.88;3.67;;;10.50;99.90;;;;;;5050450;28;20102;-83
2023/05/31 02:36:57;;;;;;;16.67;4.13;;;10.50;99.90;;;;;;5049764;28;20048;-83
2023/05/31 02:39:43;;;;;;;13.32;4.88;;;10.50;99.90;;;;;;5050311;28;20071;-82
2023/05/31 02:42:29;;;;;;;17.80;5.82;;;10.50;99.90;;;;;;5050792;28;20088;-84
2023/05/31 02:45:16;;;;;;;16.25;4.93;;;10.50;99.90;;;;;;5033887;28;20052;-83
2023/05/31 02:48:05;;;;;;;13.77;5.05;;;10.50;99.90;;;;;;5049844;28;20048;-82
2023/05/31 02:50:51;;;;;;;10.32;3.63;;;10.40;99.90;;;;;;5050556;28;20049;-81
2023/05/31 02:53:37;;;;;;;10.23;4.82;;;10.40;99.90;;;;;;5037150;28;20057;-84
2023/05/31 02:56:23;;;;;;;13.98;5.15;;;10.40;99.90;;;;;;5049980;28;20056;-84
2023/05/31 02:59:09;;;;;;;14.75;4.40;;;10.40;99.90;;;;;;5049521;28;20084;-85
2023/05/31 03:01:56;;;;;;;12.80;4.57;;;10.40;99.90;;;;;;5050131;28;20156;-81
2023/05/31 03:04:42;;;;;;;13.57;4.40;;;10.40;99.90;;;;;;5050329;28;20114;-82
2023/05/31 03:07:28;;;;;;;10.32;4.00;;;10.40;99.90;;;;;;5049975;28;20041;-81
2023/05/31 03:10:14;;;;;;;13.73;4.90;;;10.30;99.90;;;;;;5032650;28;20057;-84
2023/05/31 03:13:00;;;;;;;10.77;4.47;;;10.30;99.90;;;;;;5031472;28;20092;-82
2023/05/31 03:15:46;;;;;;;15.57;5.85;;;10.30;99.90;;;;;;5050055;28;20049;-82
2023/05/31 03:18:32;;;;;;;13.45;4.97;;;10.30;99.90;;;;;;5018039;28;20056;-82
2023/05/31 03:21:18;;;;;;;6.60;3.65;;;10.30;99.90;;;;;;5056978;28;20113;-81
2023/05/31 03:24:04;;;;;;;10.43;4.38;;;10.30;99.90;;;;;;5071430;28;20137;-81
2023/05/31 03:26:51;;;;;;;11.75;4.13;;;10.30;99.90;;;;;;5069700;28;20143;-80
2023/05/31 03:29:40;;;;;;;16.88;4.85;;;10.30;99.90;;;;;;5070676;28;20052;-81
2023/05/31 03:32:26;;;;;;;11.93;3.70;;;10.30;99.90;;;;;;5051587;28;20087;-80
2023/05/31 03:35:12;;;;;;;20.23;5.68;;;10.30;99.90;;;;;;5068845;28;20144;-81
2023/05/31 03:37:58;;;;;;;11.48;4.00;;;10.30;99.90;;;;;;5069120;28;20448;-81
2023/05/31 03:40:45;;;;;;;17.27;6.05;;;10.30;99.90;;;;;;5068185;28;20049;-81
2023/05/31 03:43:31;;;;;;;15.40;4.78;;;10.40;99.90;;;;;;5050895;28;20496;-81
2023/05/31 03:46:17;;;;;;;12.25;4.28;;;10.40;99.90;;;;;;5069290;28;20053;-81
2023/05/31 03:49:05;;;;;;;19.17;6.00;;;10.50;99.90;;;;;;5069981;28;20449;-84
2023/05/31 03:51:51;;;;;;;18.48;5.13;;;10.50;99.90;;;;;;5068853;28;20487;-82
2023/05/31 03:54:37;;;;;;;14.85;6.18;;;10.60;99.90;;;;;;5071561;28;20419;-82
2023/05/31 03:57:24;;;;;;;15.85;6.07;;;10.70;99.90;;;;;;5069711;28;20044;-82
2023/05/31 04:00:13;;;;;;;16.33;5.85;;;10.70;99.90;;;;;;5037691;28;20080;-83
2023/05/31 04:02:59;;;;;;;17.40;5.70;;;10.80;99.90;;;;;;5069626;28;20047;-81
2023/05/31 04:05:45;;;;;;;19.25;5.93;;;10.90;99.90;;;;;;5055482;28;20173;-81
2023/05/31 04:08:31;;;;;;;18.60;5.70;;;10.90;99.90;;;;;;5071296;28;20045;-81
2023/05/31 04:11:18;;;;;;;18.60;6.20;;;11.00;99.90;;;;;;5069752;28;20044;-81
2023/05/31 04:14:04;;;;;;;18.25;5.63;;;11.00;99.90;;;;;;5054353;28;20052;-82
2023/05/31 04:16:50;;;;;;;13.43;5.35;;;11.00;99.90;;;;;;5076722;28;20102;-82
2023/05/31 04:19:36;;;;;;;15.27;4.82;;;11.10;99.90;;;;;;5075673;28;20099;-81
2023/05/31 04:22:23;;;;;;;18.30;5.47;;;11.20;99.90;;;;;;5077865;28;20404;-82
2023/05/31 04:25:12;;;;;;;15.30;5.70;;;11.30;99.90;;;;;;5071251;28;20048;-84
2023/05/31 04:27:58;;;;;;;18.27;5.13;;;11.30;99.90;;;;;;5069314;28;20472;-81
2023/05/31 04:30:45;;;;;;;20.02;5.25;;;11.40;99.90;;;;;;5068073;28;20057;-84
2023/05/31 04:33:31;;;;;;;14.57;5.20;;;11.50;99.90;;;;;;5072209;28;20044;-83
2023/05/31 04:36:18;;;;;;;14.90;5.43;;;11.60;99.90;;;;;;5072143;28;20439;-83
2023/05/31 04:39:09;;;;;;;25.77;6.32;;;11.70;99.90;;;;;;5071400;28;20044;-82
2023/05/31 04:41:55;;;;;;;15.02;5.15;;;11.80;99.90;;;;;;5072672;28;20114;-83
2023/05/31 04:44:42;;;;;;;14.60;5.07;;;11.80;99.90;;;;;;5073181;28;20044;-82
2023/05/31 04:47:28;;;;;;;16.23;6.28;;;11.80;99.90;;;;;;5071882;28;20411;-83
2023/05/31 04:50:14;;;;;;;16.52;5.15;;;11.90;99.90;;;;;;5072134;28;20096;-82
2023/05/31 04:53:00;;;;;;;20.00;5.55;;;12.00;99.90;;;;;;5074377;28;20136;-82
2023/05/31 04:55:46;;;;;;;20.08;5.82;;;12.10;99.90;;;;;;5059336;28;44950;-81
2023/05/31 04:58:33;;;;;;;16.40;6.00;;;12.20;99.90;;;;;;4993960;28;20061;-83
2023/05/31 05:01:19;;;;;;;12.38;5.10;;;12.30;99.90;;;;;;5011982;28;20152;-81
2023/05/31 05:04:06;;;;;;;18.05;5.22;;;12.30;99.90;;;;;;4993958;28;20127;-83
2023/05/31 05:06:52;;;;;;;11.75;4.57;;;12.40;99.90;;;;;;5011362;28;20083;-84
2023/05/31 05:09:38;;;;;;;16.50;4.80;;;12.50;99.90;;;;;;5011410;28;20049;-85
2023/05/31 05:12:24;;;;;;;25.67;6.65;;;12.60;99.90;;;;;;5011982;28;20507;-85
2023/05/31 05:15:11;;;;;;;14.20;4.75;;;12.70;99.90;;;;;;5011647;28;20056;-84
2023/05/31 05:17:57;;;;;;;15.27;4.60;;;12.80;99.90;;;;;;5011162;28;20054;-84
2023/05/31 05:20:43;;;;;;;13.23;3.88;;;12.90;99.90;;;;;;5011883;28;20050;-85
2023/05/31 05:23:29;;;;;;;17.67;3.95;;;13.00;99.90;;;;;;5013564;28;20053;-84
2023/05/31 05:26:16;;;;;;;23.52;5.13;;;13.10;99.90;;;;;;5021814;28;20054;-84
2023/05/31 05:29:02;;;;;;;14.50;3.97;;;13.20;99.90;;;;;;4993746;28;20493;-83
2023/05/31 05:31:48;;;;;;;10.85;3.22;;;13.30;99.90;;;;;;4996378;28;20561;-86
2023/05/31 05:34:35;;;;;;;14.40;3.75;;;13.30;99.90;;;;;;4978249;28;20050;-82
2023/05/31 05:37:21;;;;;;;12.60;4.15;;;13.50;99.90;;;;;;4993166;28;20074;-86
2023/05/31 05:40:07;;;;;;;15.88;2.78;;;13.50;99.90;;;;;;4991817;28;20050;-84
2023/05/31 05:42:54;;;;;;;18.88;4.60;;;13.60;99.90;;;;;;4993015;28;20053;-82
2023/05/31 05:45:40;;;;;;;7.82;2.80;;;13.70;99.90;;;;;;4992026;28;20046;-83
2023/05/31 05:48:26;;;;;;;14.60;2.88;;;13.90;99.90;;;;;;4992803;28;20506;-84
2023/05/31 05:51:12;;;;;;;13.52;2.83;;;14.00;99.90;;;;;;4993744;28;20050;-84
2023/05/31 05:53:58;;;;;;;14.20;2.60;;;14.10;99.90;;;;;;4994367;28;20109;-84
2023/05/31 05:56:44;;;;;;;9.88;2.20;;;14.20;99.90;;;;;;4974792;28;20054;-84
2023/05/31 05:59:31;;;;;;;8.73;2.30;;;14.30;99.90;;;;;;4999852;28;20497;-81
2023/05/31 06:02:17;;;;;;;12.20;2.67;;;14.40;99.90;;;;;;4975210;28;20058;-84
2023/05/31 06:05:03;;;;;;;12.05;2.92;;;14.50;99.90;;;;;;4992586;28;20703;-87
2023/05/31 06:07:49;;;;;;;8.93;2.15;;;14.60;99.90;;;;;;4975309;28;20054;-87
2023/05/31 06:10:36;;;;;;;5.70;1.77;;;14.70;99.90;;;;;;4977482;28;20061;-82
2023/05/31 06:13:22;;;;;;;7.75;1.73;;;14.80;99.90;;;;;;4991576;28;20509;-80
2023/05/31 06:16:08;;;;;;;10.40;1.75;;;14.90;99.90;;;;;;4980536;28;20580;-84
2023/05/31 06:18:55;;;;;;;8.20;1.85;;;15.00;99.90;;;;;;5010613;28;20119;-81
2023/05/31 06:21:41;;;;;;;6.22;1.75;;;15.00;99.90;;;;;;5010304;28;20088;-82
2023/05/31 06:24:27;;;;;;;8.30;1.83;;;15.00;99.90;;;;;;4993982;28;20042;-84
2023/05/31 06:27:14;;;;;;;7.32;1.48;;;15.20;99.90;;;;;;5010263;28;20046;-89
2023/05/31 06:30:01;;;;;;;9.30;1.48;;;15.30;99.90;;;;;;5017846;28;20148;-87
2023/05/31 06:32:47;;;;;;;6.97;1.60;;;15.50;99.90;;;;;;4992638;28;20107;-87
2023/05/31 06:35:33;;;;;;;3.20;1.00;;;15.70;99.90;;;;;;5014035;28;20049;-82
2023/05/31 06:38:21;;;;;;;4.25;1.00;;;15.70;99.90;;;;;;4995941;28;20053;-86
2023/05/31 06:41:07;;;;;;;3.92;1.10;;;15.80;99.90;;;;;;5011477;28;20097;-84
2023/05/31 06:43:53;;;;;;;7.13;1.17;;;15.90;99.90;;;;;;5011114;28;20494;-82
2023/05/31 06:46:40;;;;;;;9.60;1.38;;;15.90;99.90;;;;;;5012266;28;20049;-80
2023/05/31 06:49:27;;;;;;;4.32;1.42;;;16.00;99.90;;;;;;4992526;28;20058;-85
2023/05/31 06:52:13;;;;;;;6.07;1.23;;;16.00;99.90;;;;;;5010605;28;20441;-86
2023/05/31 06:55:00;;;;;;;6.78;1.20;;;16.00;99.90;;;;;;5004636;28;20053;-81
2023/05/31 06:57:46;;;;;;;9.43;1.15;;;16.20;99.90;;;;;;5007334;28;20132;-83
2023/05/31 07:00:32;;;;;;;3.72;1.15;;;16.50;99.90;;;;;;5006856;28;20187;-84
2023/05/31 07:03:18;;;;;;;4.97;1.10;;;16.50;99.90;;;;;;5009538;28;20057;-79
2023/05/31 07:06:04;;;;;;;7.50;2.47;;;16.40;99.90;;;;;;5007254;28;20054;-85
2023/05/31 07:08:51;;;;;;;6.35;1.50;;;16.30;99.90;;;;;;5011592;28;20493;-77
2023/05/31 07:11:41;;;;;;;4.18;1.10;;;16.30;99.90;;;;;;5011140;28;20061;-78
2023/05/31 07:14:28;;;;;;;5.28;1.02;;;16.60;99.90;;;;;;5012199;28;20516;-80
2023/05/31 07:17:15;;;;;;;9.93;1.58;;;16.60;99.90;;;;;;5008989;28;20050;-78
2023/05/31 07:20:01;;;;;;;7.57;1.73;;;16.40;99.90;;;;;;4996887;28;20440;-77
2023/05/31 07:22:47;;;;;;;10.23;1.65;;;16.40;99.90;;;;;;5015849;28;20061;-77
2023/05/31 07:25:33;;;;;;;7.35;1.38;;;16.30;99.90;;;;;;5019691;28;20080;-85
2023/05/31 07:28:19;;;;;;;13.80;2.00;;;16.40;99.90;;;;;;5015974;28;20042;-81
2023/05/31 07:31:05;;;;;;;11.30;2.25;;;16.60;99.90;;;;;;5015341;28;20060;-81
2023/05/31 07:33:51;;;;;;;8.98;1.80;;;16.60;99.90;;;;;;5017057;28;20100;-80
2023/05/31 07:36:39;;;;;;;9.85;2.25;;;16.80;99.90;;;;;;4993212;28;20053;-80
2023/05/31 07:39:25;;;;;;;10.68;2.08;;;17.00;99.90;;;;;;5008613;28;20049;-82
2023/05/31 07:42:12;;;;;;;8.13;1.95;;;17.20;99.90;;;;;;5009767;28;20049;-80
2023/05/31 07:44:59;;;;;;;10.50;2.15;;;17.40;99.90;;;;;;4991990;28;20053;-79
2023/05/31 07:47:45;;;;;;;12.32;3.40;;;17.60;99.90;;;;;;5009653;28;20056;-79
2023/05/31 07:50:31;;;;;;;8.15;2.17;;;17.30;99.90;;;;;;5003088;28;20501;-81
2023/05/31 07:53:17;;;;;;;14.77;3.10;;;17.50;99.90;;;;;;4991710;28;20053;-81
2023/05/31 07:56:03;;;;;;;7.90;2.50;;;17.60;99.90;;;;;;5009061;28;20501;-79
2023/05/31 07:58:50;;;;;;;11.63;2.85;;;17.80;99.90;;;;;;5009536;28;20081;-79
2023/05/31 08:01:36;;;;;;;10.48;2.45;;;18.00;99.90;;;;;;5009488;28;20082;-79
2023/05/31 08:04:23;;;;;;;11.43;2.30;;;18.10;99.90;;;;;;5002776;28;20053;-84
2023/05/31 08:07:09;;;;;;;12.77;2.42;;;18.10;99.90;;;;;;4992110;28;20077;-81
2023/05/31 08:09:56;;;;;;;11.95;2.67;;;18.20;99.90;;;;;;4995415;28;20050;-82
2023/05/31 08:12:42;;;;;;;7.70;2.30;;;18.20;99.90;;;;;;5013234;28;20117;-80
2023/05/31 08:15:28;;;;;;;8.73;2.58;;;18.40;99.90;;;;;;4985104;28;20077;-81
2023/05/31 08:18:15;;;;;;;14.52;3.35;;;18.50;99.90;;;;;;5015526;28;20081;-80
2023/05/31 08:21:01;;;;;;;12.38;2.08;;;18.50;99.90;;;;;;5015502;28;20061;-79
2023/05/31 08:23:47;;;;;;;9.30;2.33;;;18.50;99.90;;;;;;5015047;28;20061;-79
2023/05/31 08:26:33;;;;;;;6.63;2.33;;;18.40;99.90;;;;;;5015480;28;20102;-80
2023/05/31 08:29:20;;;;;;;8.57;2.42;;;18.10;99.90;;;;;;5013371;28;20643;-79
2023/05/31 08:32:06;;;;;;;10.73;2.80;;;18.20;99.90;;;;;;5012377;28;20128;-83
2023/05/31 08:34:52;;;;;;;10.52;2.58;;;18.30;99.90;;;;;;5012203;28;20062;-80
2023/05/31 08:37:39;;;;;;;11.15;1.92;;;18.30;99.90;;;;;;5007173;28;20073;-81
2023/05/31 08:40:26;;;;;;;13.35;2.92;;;18.20;99.90;;;;;;4995069;28;20050;-80
2023/05/31 08:43:15;;;;;;;11.02;2.47;;;18.30;99.90;;;;;;5012826;28;20053;-82
2023/05/31 08:46:05;;;;;;;6.88;1.85;;;18.10;99.90;;;;;;5012170;28;20486;-79
2023/05/31 08:49:05;;;;;;;10.65;2.60;;;18.20;99.90;;;;;;5012406;28;20100;-77
2023/05/31 08:51:53;;;;;;;10.85;2.97;;;18.40;99.90;;;;;;5012734;28;20053;-80
2023/05/31 08:54:42;;;;;;;6.85;1.85;;;18.30;99.90;;;;;;5012451;28;20050;-81
2023/05/31 08:57:30;;;;;;;9.75;2.50;;;18.20;99.90;;;;;;5012665;28;20050;-79
2023/05/31 09:00:18;;;;;;;7.57;2.40;;;18.10;99.90;;;;;;4995722;28;20485;-81
2023/05/31 09:03:09;;;;;;;11.27;2.35;;;18.10;99.90;;;;;;5012314;28;20056;-78
2023/05/31 09:05:56;;;;;;;11.52;3.10;;;18.20;99.90;;;;;;5012365;28;20046;-75
2023/05/31 09:08:42;;;;;;;10.95;2.30;;;17.90;99.90;;;;;;4994706;28;20123;-79
2023/05/31 09:11:29;;;;;;;7.47;2.25;;;17.90;99.90;;;;;;5011960;28;20056;-78
2023/05/31 09:14:15;;;;;;;10.35;2.40;;;17.90;99.90;;;;;;5012520;28;20515;-77
2023/05/31 09:17:03;;;;;;;7.97;2.33;;;17.90;99.90;;;;;;4994219;28;20062;-80
2023/05/31 09:19:52;;;;;;;8.43;2.88;;;17.90;99.90;;;;;;4994408;28;20046;-78
2023/05/31 09:22:38;;;;;;;7.60;1.92;;;18.00;99.90;;;;;;4994473;28;20092;-82
2023/05/31 09:25:25;;;;;;;7.22;2.28;;;17.80;99.90;;;;;;5011549;28;20073;-82
2023/05/31 09:28:12;;;;;;;7.90;2.15;;;17.90;99.90;;;;;;4995276;28;20103;-84
2023/05/31 09:31:07;;;;;;;6.63;2.10;;;18.20;99.90;;;;;;5008831;28;20481;-81
2023/05/31 09:33:56;;;;;;;6.60;2.13;;;18.60;99.90;;;;;;5010185;28;21134;-76
2023/05/31 09:36:43;;;;;;;9.82;2.63;;;18.50;99.90;;;;;;5007418;28;20060;-78
2023/05/31 09:39:30;;;;;;;8.75;2.33;;;18.50;99.90;;;;;;5009930;28;20139;-78
2023/05/31 09:42:16;;;;;;;8.55;2.78;;;18.50;99.90;;;;;;4993444;28;20143;-79
2023/05/31 09:45:04;;;;;;;6.07;2.40;;;18.50;99.90;;;;;;5011928;28;20401;-79
2023/05/31 09:47:51;;;;;;;9.52;2.08;;;18.50;99.90;;;;;;4997074;28;20054;-76
2023/05/31 09:50:39;;;;;;;10.93;2.20;;;18.50;99.90;;;;;;4993741;28;20405;-80
2023/05/31 09:53:25;;;;;;;8.18;1.95;;;18.70;99.90;;;;;;5011876;28;20053;-79
2023/05/31 09:56:23;;;;;;;7.85;2.35;;;18.60;99.90;;;;;;5009331;28;20133;-79
2023/05/31 09:59:10;;;;;;;7.13;1.83;;;18.70;99.90;;;;;;4994887;28;20061;-79
2023/05/31 10:01:57;;;;;;;7.55;1.85;;;18.70;99.90;;;;;;4995132;28;20062;-75
2023/05/31 10:04:43;;;;;;;8.20;1.83;;;18.80;99.90;;;;;;4994444;28;20497;-82
2023/05/31 10:07:30;;;;;;;8.77;2.10;;;19.10;99.90;;;;;;5011226;28;20045;-84
2023/05/31 10:10:22;;;;;;;10.07;1.85;;;19.20;99.90;;;;;;5011215;28;20054;-81
2023/05/31 10:13:13;;;;;;;10.02;1.90;;;19.50;99.90;;;;;;4994847;28;20057;-83
2023/05/31 10:16:10;;;;;;;7.93;2.10;;;19.50;99.60;;;;;;5010703;28;20085;-80
2023/05/31 10:19:02;;;;;;;8.43;1.95;;;19.70;99.40;;;;;;5010620;28;20139;-84
2023/05/31 10:21:49;;;;;;;6.30;2.13;;;19.60;99.20;;;;;;5011701;28;20058;-87
2023/05/31 10:25:16;;;;;;;9.70;1.98;;;19.80;99.60;;;;;;5010157;28;20045;-80
2023/05/31 10:28:09;;;;;;;5.90;1.98;;;20.20;99.00;;;;;;4969640;28;20059;-76
2023/05/31 10:30:57;;;;;;;7.22;2.65;;;20.50;97.90;;;;;;4963897;28;20490;-82
2023/05/31 10:33:51;;;;;;;11.32;2.20;;;20.50;98.10;;;;;;4994914;28;20053;-81
2023/05/31 10:36:38;;;;;;;9.63;2.42;;;20.30;98.00;;;;;;5008273;28;20089;-81
2023/05/31 10:39:26;;;;;;;8.00;2.20;;;20.20;98.20;;;;;;5001200;28;20085;-78
2023/05/31 10:42:38;;;;;;;6.13;1.92;;;20.30;98.40;;;;;;4993830;28;20560;-79
2023/05/31 10:45:42;;;;;;;11.63;3.13;;;20.20;97.40;;;;;;4992098;28;20140;-82
2023/05/31 10:48:46;;;;;;;9.05;2.38;;;20.50;97.50;;;;;;4986049;28;20053;-80
2023/05/31 10:51:46;;;;;;;8.05;2.30;;;21.00;97.60;;;;;;4992524;28;20085;-79
2023/05/31 10:54:33;;;;;;;11.98;2.30;;;21.20;96.30;;;;;;4992947;28;20656;-79
2023/05/31 10:57:19;;;;;;;6.82;2.22;;;21.20;96.70;;;;;;4993571;28;20484;-88
2023/05/31 11:00:07;;;;;;;8.60;2.53;;;21.30;96.80;;;;;;4990540;28;20050;-78
2023/05/31 11:02:58;;;;;;;6.20;2.58;;;21.50;96.70;;;;;;5009269;28;20093;-79
2023/05/31 11:05:55;;;;;;;9.07;2.80;;;21.60;96.10;;;;;;5010052;28;20050;-82
2023/05/31 11:09:09;;;;;;;7.68;2.00;;;21.30;95.20;;;;;;5011227;28;20061;-81
2023/05/31 11:11:56;;;;;;;8.05;2.22;;;21.60;95.60;;;;;;5009839;28;20058;-85
2023/05/31 11:15:00;;;;;;;9.45;2.60;;;21.40;95.40;;;;;;5009123;28;20046;-81
2023/05/31 11:17:54;;;;;;;7.80;1.90;;;21.30;95.00;;;;;;5010055;28;20049;-81
2023/05/31 11:20:41;;;;;;;10.85;2.63;;;21.20;95.60;;;;;;5009783;28;20054;-76
2023/05/31 11:23:31;;;;;;;8.73;1.90;;;21.60;95.50;;;;;;5010119;28;20045;-78
2023/05/31 11:26:18;;;;;;;7.25;1.83;;;21.70;94.90;;;;;;5009906;28;20049;-79
2023/05/31 11:29:04;;;;;;;7.70;2.03;;;21.60;94.80;;;;;;4992927;28;20093;-81
2023/05/31 11:31:58;;;;;;;6.60;1.50;;;21.60;95.20;;;;;;5009458;28;20058;-81
2023/05/31 11:34:54;;;;;;;8.32;2.00;;;21.80;95.00;;;;;;5010065;28;20506;-77
2023/05/31 11:37:42;;;;;;;8.80;1.90;;;21.80;94.50;;;;;;5009144;28;20061;-78
2023/05/31 11:40:30;;;;;;;9.07;2.75;;;22.10;94.50;;;;;;5009544;28;20132;-78
2023/05/31 11:43:22;;;;;;;10.82;3.25;;;22.40;94.50;;;;;;5012349;28;20050;-79
2023/05/31 11:46:09;;;;;;;6.80;2.03;;;22.40;93.80;;;;;;4995770;28;20081;-77
2023/05/31 11:48:57;;;;;;;6.90;1.95;;;22.30;94.00;;;;;;5014195;28;20097;-77
2023/05/31 11:51:44;;;;;;;7.40;1.80;;;22.70;94.50;;;;;;4982038;28;20053;-76
2023/05/31 11:54:32;;;;;;;9.18;2.05;;;23.00;93.80;;;;;;4996416;28;20465;-77
2023/05/31 11:57:20;;;;;;;9.68;2.20;;;22.90;93.20;;;;;;5013657;28;20448;-77
2023/05/31 12:00:11;;;;;;;6.78;1.70;;;23.00;93.20;;;;;;4996052;28;20049;-78
2023/05/31 12:02:57;;;;;;;8.60;2.70;;;22.90;93.20;;;;;;5012988;28;20053;-78
2023/05/31 12:05:51;;;;;;;5.15;1.83;;;23.00;93.30;;;;;;4996023;28;20508;-77
2023/05/31 12:08:37;;;;;;;7.22;2.28;;;22.80;92.50;;;;;;5013362;28;20064;-76
2023/05/31 12:11:23;;;;;;;4.75;1.98;;;23.20;92.60;;;;;;4995624;28;20053;-78
2023/05/31 12:14:11;;;;;;;7.05;2.13;;;23.20;92.10;;;;;;5014035;28;20367;-77
2023/05/31 12:17:05;;;;;;;11.63;2.40;;;23.00;91.90;;;;;;5012413;28;20053;-77
2023/05/31 12:19:51;;;;;;;6.30;2.03;;;23.10;91.90;;;;;;4995376;28;20057;-79
2023/05/31 12:22:37;;;;;;;6.68;2.00;;;23.00;92.10;;;;;;5006541;28;20460;-77
2023/05/31 12:25:27;;;;;;;8.95;2.05;;;23.00;92.20;;;;;;5012763;28;20054;-80
2023/05/31 12:28:17;;;;;;;8.73;2.28;;;22.90;92.00;;;;;;5013825;28;20084;-85
2023/05/31 12:31:07;;;;;;;8.98;2.38;;;23.50;91.40;;;;;;5015820;28;20109;-84
2023/05/31 12:34:07;;;;;;;7.03;2.25;;;24.00;90.80;;;;;;5013684;28;20050;-78
2023/05/31 12:36:53;;;;;;;8.00;2.80;;;24.10;90.10;;;;;;5011472;28;20519;-80
2023/05/31 12:39:39;;;;;;;5.80;1.95;;;23.90;90.70;;;;;;5011758;28;20042;-75
2023/05/31 12:42:25;;;;;;;9.40;2.80;;;23.90;90.50;;;;;;5012854;28;20049;-85
2023/05/31 12:45:11;;;;;;;8.45;2.40;;;23.80;90.50;;;;;;5011989;28;20053;-82
2023/05/31 12:47:58;;;;;;;10.88;2.40;;;23.80;90.60;;;;;;5012207;28;20053;-79
2023/05/31 12:50:47;;;;;;;7.88;2.20;;;23.70;90.30;;;;;;5011841;28;20145;-80
2023/05/31 12:53:39;;;;;;;8.48;2.20;;;23.80;90.00;;;;;;5012336;28;20053;-78
2023/05/31 12:56:27;;;;;;;12.80;3.63;;;23.80;89.40;;;;;;4994437;28;20062;-76
2023/05/31 12:59:13;;;;;;;5.95;2.15;;;23.60;90.00;;;;;;5011977;28;20100;-80
2023/05/31 13:02:00;;;;;;;11.23;2.33;;;23.50;89.90;;;;;;4995467;28;20061;-77
2023/05/31 13:04:46;;;;;;;8.07;3.00;;;23.30;90.10;;;;;;4993735;28;20387;-79
2023/05/31 13:07:32;;;;;;;13.02;3.33;;;24.00;90.20;;;;;;5012053;28;20046;-84
2023/05/31 13:10:18;;;;;;;9.25;2.80;;;24.20;90.10;;;;;;4994655;28;20105;-87
2023/05/31 13:13:05;;;;;;;9.40;2.47;;;24.40;88.60;;;;;;4995587;28;20705;-82
2023/05/31 13:15:51;;;;;;;6.72;2.95;;;24.00;89.00;;;;;;5013443;28;20104;-79
2023/05/31 13:18:37;;;;;;;6.55;2.67;;;23.80;89.00;;;;;;4995051;28;20054;-81
2023/05/31 13:21:23;;;;;;;8.57;2.42;;;23.80;89.00;;;;;;5013191;28;20058;-85
2023/05/31 13:24:10;;;;;;;8.23;2.30;;;23.60;89.10;;;;;;5013476;28;20561;-83
2023/05/31 13:26:56;;;;;;;8.13;2.38;;;24.10;89.10;;;;;;5000787;28;20053;-80
2023/05/31 13:29:42;;;;;;;11.30;2.25;;;24.00;88.30;;;;;;5013379;28;20050;-74
2023/05/31 13:32:28;;;;;;;5.38;2.17;;;23.80;87.00;;;;;;5010881;28;20056;-79
2023/05/31 13:35:15;;;;;;;7.95;2.40;;;23.30;86.70;;;;;;5012239;28;20065;-76
2023/05/31 13:38:01;;;;;;;11.93;3.10;;;22.90;87.80;;;;;;5011046;28;20061;-79
2023/05/31 13:40:47;;;;;;;15.43;3.08;;;22.50;89.20;;;;;;5011936;28;20551;-76
2023/05/31 13:43:34;;;;;;;6.72;2.20;;;22.60;90.20;;;;;;5011777;28;20132;-75
2023/05/31 13:46:20;;;;;;;9.23;2.53;;;21.50;90.80;;;;;;5011395;28;20054;-76
2023/05/31 13:49:06;;;;;;;7.50;2.03;;;21.80;91.40;;;;;;5012520;28;20129;-80
2023/05/31 13:51:53;;;;;;;11.48;3.13;;;22.50;90.80;;;;;;5012009;28;20050;-80
2023/05/31 13:54:39;;;;;;;10.73;2.30;;;23.10;90.40;;;;;;5012535;28;20108;-80
2023/05/31 13:57:25;;;;;;;11.95;2.22;;;23.50;89.30;;;;;;5012608;28;20109;-83
2023/05/31 14:00:11;;;;;;;8.00;2.40;;;23.50;88.70;;;;;;5014023;28;20062;-76
2023/05/31 14:02:58;;;;;;;8.30;2.15;;;23.30;88.50;;;;;;5011583;28;20072;-81
2023/05/31 14:05:46;;;;;;;10.32;2.03;;;22.90;89.00;;;;;;5010436;28;20176;-74
2023/05/31 14:08:34;;;;;;;6.78;1.85;;;22.60;89.60;;;;;;5010623;28;20141;-73
2023/05/31 14:11:21;;;;;;;5.40;2.10;;;23.00;89.70;;;;;;5013387;28;20054;-87
2023/05/31 14:14:08;;;;;;;5.93;2.03;;;23.70;87.90;;;;;;5011318;28;20108;-77
2023/05/31 14:16:54;;;;;;;3.45;1.45;;;24.00;87.80;;;;;;5012462;28;20056;-80
2023/05/31 14:19:40;;;;;;;12.00;2.08;;;24.50;86.60;;;;;;4996419;28;20149;-81
2023/05/31 14:22:26;;;;;;;7.07;2.03;;;24.50;85.10;;;;;;4994235;28;20068;-84
2023/05/31 14:25:12;;;;;;;9.63;2.72;;;24.00;85.10;;;;;;5011013;28;20058;-81